sensor_id;sensor_type;location;lat;lon;timestamp;pressure;altitude;pressure_sealevel;temperature;humidity
63339;BME280;47485;51.378;-1.342;2022-10-16T00:00:24;99147.60;;;9.73;33.66
63339;BME280;47485;51.378;-1.342;2022-10-16T00:02:50;99147.17;;;7.37;36.04
63339;BME280;47485;51.378;-1.342;2022-10-16T00:05:17;99145.30;;;7.60;36.89
63339;BME280;47485;51.378;-1.342;2022-10-16T00:07:43;99149.59;;;6.31;39.24
63339;BME280;47485;51.378;-1.342;2022-10-16T00:10:10;99150.69;;;6.79;37.87
63339;BME280;47485;51.378;-1.342;2022-10-16T00:12:37;99149.93;;;5.03;40.38
63339;BME280;47485;51.378;-1.342;2022-10-16T00:15:05;99149.35;;;7.47;37.47
63339;BME280;47485;51.378;-1.342;2022-10-16T00:17:33;99145.53;;;7.20;38.56
63339;BME280;47485;51.378;-1.342;2022-10-16T00:19:59;99151.48;;;7.70;39.14
63339;BME280;47485;51.378;-1.342;2022-10-16T00:22:26;99160.31;;;8.67;38.10
63339;BME280;47485;51.378;-1.342;2022-10-16T00:24:53;99163.34;;;7.95;40.50
63339;BME280;47485;51.378;-1.342;2022-10-16T00:27:20;99163.67;;;9.34;38.72
63339;BME280;47485;51.378;-1.342;2022-10-16T00:29:49;99168.24;;;7.17;39.66
63339;BME280;47485;51.378;-1.342;2022-10-16T00:32:16;99173.73;;;8.10;37.06
63339;BME280;47485;51.378;-1.342;2022-10-16T00:34:43;99170.11;;;8.35;37.36
63339;BME280;47485;51.378;-1.342;2022-10-16T00:37:09;99166.15;;;6.68;39.27
63339;BME280;47485;51.378;-1.342;2022-10-16T00:39:36;99163.36;;;7.72;35.33
63339;BME280;47485;51.378;-1.342;2022-10-16T00:42:04;99168.31;;;8.31;36.11
63339;BME280;47485;51.378;-1.342;2022-10-16T00:44:48;99175.07;;;8.46;36.58
63339;BME280;47485;51.378;-1.342;2022-10-16T00:47:19;99176.22;;;4.34;39.31
63339;BME280;47485;51.378;-1.342;2022-10-16T00:49:50;99163.53;;;7.71;35.87
63339;BME280;47485;51.378;-1.342;2022-10-16T00:52:18;99163.34;;;8.68;35.15
63339;BME280;47485;51.378;-1.342;2022-10-16T00:54:46;99163.16;;;5.93;37.99
63339;BME280;47485;51.378;-1.342;2022-10-16T00:57:16;99155.19;;;8.51;35.87
63339;BME280;47485;51.378;-1.342;2022-10-16T00:59:42;99155.25;;;4.79;39.39
63339;BME280;47485;51.378;-1.342;2022-10-16T01:02:12;99159.79;;;7.86;37.33
63339;BME280;47485;51.378;-1.342;2022-10-16T01:04:42;99165.16;;;8.93;36.64
63339;BME280;47485;51.378;-1.342;2022-10-16T01:07:16;99166.02;;;5.87;39.51
63339;BME280;47485;51.378;-1.342;2022-10-16T01:09:52;99165.98;;;8.40;36.72
63339;BME280;47485;51.378;-1.342;2022-10-16T01:12:29;99163.44;;;6.89;37.47
63339;BME280;47485;51.378;-1.342;2022-10-16T01:15:08;99168.74;;;7.71;35.98
63339;BME280;47485;51.378;-1.342;2022-10-16T01:17:43;99163.79;;;8.31;37.32
63339;BME280;47485;51.378;-1.342;2022-10-16T01:20:23;99167.08;;;8.05;37.32
63339;BME280;47485;51.378;-1.342;2022-10-16T01:23:03;99173.87;;;7.41;38.73
63339;BME280;47485;51.378;-1.342;2022-10-16T01:25:44;99175.64;;;7.88;37.55
63339;BME280;47485;51.378;-1.342;2022-10-16T01:28:16;99167.39;;;9.23;34.69
63339;BME280;47485;51.378;-1.342;2022-10-16T01:30:46;99176.82;;;8.19;35.06
63339;BME280;47485;51.378;-1.342;2022-10-16T01:33:19;99182.19;;;7.76;34.96
63339;BME280;47485;51.378;-1.342;2022-10-16T01:35:51;99175.18;;;8.46;34.13
63339;BME280;47485;51.378;-1.342;2022-10-16T01:38:22;99186.06;;;10.26;34.39
63339;BME280;47485;51.378;-1.342;2022-10-16T01:40:54;99193.00;;;8.20;35.11
63339;BME280;47485;51.378;-1.342;2022-10-16T01:43:26;99185.06;;;8.95;35.84
63339;BME280;47485;51.378;-1.342;2022-10-16T01:45:55;99190.07;;;8.41;37.25
63339;BME280;47485;51.378;-1.342;2022-10-16T01:48:23;99189.52;;;5.36;37.32
63339;BME280;47485;51.378;-1.342;2022-10-16T01:50:55;99193.76;;;6.76;35.16
63339;BME280;47485;51.378;-1.342;2022-10-16T01:53:24;99203.51;;;5.92;37.91
63339;BME280;47485;51.378;-1.342;2022-10-16T01:55:52;99211.70;;;6.68;38.44
63339;BME280;47485;51.378;-1.342;2022-10-16T01:58:22;99204.64;;;5.90;37.56
63339;BME280;47485;51.378;-1.342;2022-10-16T02:00:51;99200.73;;;7.98;35.55
63339;BME280;47485;51.378;-1.342;2022-10-16T02:03:21;99214.35;;;6.83;37.47
63339;BME280;47485;51.378;-1.342;2022-10-16T02:05:51;99212.35;;;7.27;36.43
63339;BME280;47485;51.378;-1.342;2022-10-16T02:08:19;99209.52;;;7.01;36.95
63339;BME280;47485;51.378;-1.342;2022-10-16T02:10:47;99212.59;;;5.40;37.60
63339;BME280;47485;51.378;-1.342;2022-10-16T02:13:17;99213.46;;;6.37;35.50
63339;BME280;47485;51.378;-1.342;2022-10-16T02:15:44;99212.49;;;6.01;35.67
63339;BME280;47485;51.378;-1.342;2022-10-16T02:18:15;99224.83;;;7.65;36.13
63339;BME280;47485;51.378;-1.342;2022-10-16T02:20:48;99232.19;;;4.25;38.85
63339;BME280;47485;51.378;-1.342;2022-10-16T02:23:22;99233.23;;;7.02;37.54
63339;BME280;47485;51.378;-1.342;2022-10-16T02:25:52;99243.60;;;7.25;37.71
63339;BME280;47485;51.378;-1.342;2022-10-16T02:28:25;99243.47;;;6.99;37.72
63339;BME280;47485;51.378;-1.342;2022-10-16T02:30:56;99243.94;;;5.50;37.75
63339;BME280;47485;51.378;-1.342;2022-10-16T02:33:25;99247.90;;;6.35;36.99
63339;BME280;47485;51.378;-1.342;2022-10-16T02:35:54;99257.77;;;7.20;37.78
63339;BME280;47485;51.378;-1.342;2022-10-16T02:38:23;99252.87;;;7.36;36.26
63339;BME280;47485;51.378;-1.342;2022-10-16T02:40:51;99256.63;;;6.30;37.89
63339;BME280;47485;51.378;-1.342;2022-10-16T02:43:18;99262.43;;;7.70;38.53
63339;BME280;47485;51.378;-1.342;2022-10-16T02:45:45;99260.67;;;7.74;36.59
63339;BME280;47485;51.378;-1.342;2022-10-16T02:48:12;99266.48;;;5.18;37.99
63339;BME280;47485;51.378;-1.342;2022-10-16T02:50:39;99270.06;;;8.47;36.31
63339;BME280;47485;51.378;-1.342;2022-10-16T02:53:06;99276.46;;;4.65;38.49
63339;BME280;47485;51.378;-1.342;2022-10-16T02:55:32;99280.99;;;5.12;37.27
63339;BME280;47485;51.378;-1.342;2022-10-16T02:57:59;99279.80;;;6.78;36.99
63339;BME280;47485;51.378;-1.342;2022-10-16T03:00:26;99280.66;;;9.89;33.63
63339;BME280;47485;51.378;-1.342;2022-10-16T03:02:52;99282.63;;;8.49;34.32
63339;BME280;47485;51.378;-1.342;2022-10-16T03:05:19;99283.10;;;7.77;34.15
63339;BME280;47485;51.378;-1.342;2022-10-16T03:07:46;99284.43;;;8.06;34.44
63339;BME280;47485;51.378;-1.342;2022-10-16T03:10:13;99281.31;;;6.65;35.66
63339;BME280;47485;51.378;-1.342;2022-10-16T03:12:39;99282.39;;;6.79;36.62
63339;BME280;47485;51.378;-1.342;2022-10-16T03:15:07;99283.31;;;8.96;34.54
63339;BME280;47485;51.378;-1.342;2022-10-16T03:17:33;99287.43;;;8.08;36.05
63339;BME280;47485;51.378;-1.342;2022-10-16T03:20:01;99296.09;;;7.99;37.03
63339;BME280;47485;51.378;-1.342;2022-10-16T03:22:28;99291.34;;;7.45;36.59
63339;BME280;47485;51.378;-1.342;2022-10-16T03:24:55;99298.49;;;7.23;37.72
63339;BME280;47485;51.378;-1.342;2022-10-16T03:27:21;99303.34;;;7.46;37.90
63339;BME280;47485;51.378;-1.342;2022-10-16T03:29:48;99306.61;;;5.94;38.27
63339;BME280;47485;51.378;-1.342;2022-10-16T03:32:15;99307.66;;;5.42;39.17
63339;BME280;47485;51.378;-1.342;2022-10-16T03:34:42;99299.86;;;7.12;36.41
63339;BME280;47485;51.378;-1.342;2022-10-16T03:37:09;99306.43;;;7.26;36.55
63339;BME280;47485;51.378;-1.342;2022-10-16T03:39:36;99315.35;;;5.78;36.94
63339;BME280;47485;51.378;-1.342;2022-10-16T03:42:03;99309.74;;;5.74;35.90
63339;BME280;47485;51.378;-1.342;2022-10-16T03:44:30;99310.12;;;8.60;32.34
63339;BME280;47485;51.378;-1.342;2022-10-16T03:46:57;99320.08;;;8.83;33.08
63339;BME280;47485;51.378;-1.342;2022-10-16T03:49:24;99329.41;;;7.92;35.83
63339;BME280;47485;51.378;-1.342;2022-10-16T03:51:51;99333.50;;;6.24;37.24
63339;BME280;47485;51.378;-1.342;2022-10-16T03:54:18;99335.07;;;6.94;35.76
63339;BME280;47485;51.378;-1.342;2022-10-16T03:56:44;99341.55;;;6.75;36.38
63339;BME280;47485;51.378;-1.342;2022-10-16T03:59:11;99342.68;;;7.43;35.98
63339;BME280;47485;51.378;-1.342;2022-10-16T04:01:37;99343.78;;;5.57;36.55
63339;BME280;47485;51.378;-1.342;2022-10-16T04:04:04;99340.11;;;8.11;34.42
63339;BME280;47485;51.378;-1.342;2022-10-16T04:06:31;99353.56;;;6.13;35.99
63339;BME280;47485;51.378;-1.342;2022-10-16T04:08:58;99350.23;;;8.28;33.75
63339;BME280;47485;51.378;-1.342;2022-10-16T04:11:25;99359.35;;;7.97;34.38
63339;BME280;47485;51.378;-1.342;2022-10-16T04:13:51;99364.69;;;8.94;34.36
63339;BME280;47485;51.378;-1.342;2022-10-16T04:16:18;99370.37;;;8.72;34.38
63339;BME280;47485;51.378;-1.342;2022-10-16T04:18:45;99371.47;;;8.56;33.27
63339;BME280;47485;51.378;-1.342;2022-10-16T04:21:12;99379.22;;;8.05;33.00
63339;BME280;47485;51.378;-1.342;2022-10-16T04:23:39;99382.47;;;9.11;33.68
63339;BME280;47485;51.378;-1.342;2022-10-16T04:26:05;99385.02;;;7.99;32.54
63339;BME280;47485;51.378;-1.342;2022-10-16T04:28:32;99385.35;;;10.13;31.15
63339;BME280;47485;51.378;-1.342;2022-10-16T04:30:59;99397.62;;;10.31;30.84
63339;BME280;47485;51.378;-1.342;2022-10-16T04:33:25;99404.24;;;8.47;32.34
63339;BME280;47485;51.378;-1.342;2022-10-16T04:35:56;99412.94;;;8.82;32.52
63339;BME280;47485;51.378;-1.342;2022-10-16T04:38:24;99416.52;;;8.01;32.99
63339;BME280;47485;51.378;-1.342;2022-10-16T04:40:51;99422.20;;;5.06;34.66
63339;BME280;47485;51.378;-1.342;2022-10-16T04:43:24;99422.14;;;5.95;35.30
63339;BME280;47485;51.378;-1.342;2022-10-16T04:45:50;99426.15;;;8.05;33.88
63339;BME280;47485;51.378;-1.342;2022-10-16T04:48:17;99432.56;;;8.06;34.30
63339;BME280;47485;51.378;-1.342;2022-10-16T04:50:44;99426.31;;;7.19;32.68
63339;BME280;47485;51.378;-1.342;2022-10-16T04:53:11;99434.53;;;8.42;32.99
63339;BME280;47485;51.378;-1.342;2022-10-16T04:55:37;99432.69;;;8.46;32.09
63339;BME280;47485;51.378;-1.342;2022-10-16T04:58:05;99443.64;;;8.74;33.33
63339;BME280;47485;51.378;-1.342;2022-10-16T05:00:31;99445.55;;;6.82;34.22
63339;BME280;47485;51.378;-1.342;2022-10-16T05:02:58;99450.18;;;8.06;32.17
63339;BME280;47485;51.378;-1.342;2022-10-16T05:05:26;99459.63;;;7.20;33.09
63339;BME280;47485;51.378;-1.342;2022-10-16T05:07:54;99466.63;;;8.55;32.80
63339;BME280;47485;51.378;-1.342;2022-10-16T05:10:21;99477.54;;;8.21;32.85
63339;BME280;47485;51.378;-1.342;2022-10-16T05:12:48;99483.83;;;7.04;34.12
63339;BME280;47485;51.378;-1.342;2022-10-16T05:15:15;99491.23;;;9.41;32.41
63339;BME280;47485;51.378;-1.342;2022-10-16T05:17:42;99491.25;;;8.27;32.42
63339;BME280;47485;51.378;-1.342;2022-10-16T05:20:09;99493.36;;;7.33;33.55
63339;BME280;47485;51.378;-1.342;2022-10-16T05:22:35;99498.67;;;8.58;33.43
63339;BME280;47485;51.378;-1.342;2022-10-16T05:25:03;99500.16;;;8.73;32.40
63339;BME280;47485;51.378;-1.342;2022-10-16T05:27:30;99495.35;;;9.27;31.56
63339;BME280;47485;51.378;-1.342;2022-10-16T05:29:57;99501.13;;;7.90;32.25
63339;BME280;47485;51.378;-1.342;2022-10-16T05:32:24;99502.06;;;7.86;31.70
63339;BME280;47485;51.378;-1.342;2022-10-16T05:34:51;99504.42;;;9.34;31.27
63339;BME280;47485;51.378;-1.342;2022-10-16T05:37:17;99512.35;;;8.22;32.05
63339;BME280;47485;51.378;-1.342;2022-10-16T05:39:44;99507.49;;;8.20;30.72
63339;BME280;47485;51.378;-1.342;2022-10-16T05:42:11;99512.81;;;6.48;31.01
63339;BME280;47485;51.378;-1.342;2022-10-16T05:44:38;99507.85;;;9.54;29.38
63339;BME280;47485;51.378;-1.342;2022-10-16T05:47:04;99514.71;;;8.58;29.35
63339;BME280;47485;51.378;-1.342;2022-10-16T05:49:31;99521.65;;;8.65;29.33
63339;BME280;47485;51.378;-1.342;2022-10-16T05:51:58;99523.22;;;9.61;27.78
63339;BME280;47485;51.378;-1.342;2022-10-16T05:54:25;99527.94;;;8.96;28.04
63339;BME280;47485;51.378;-1.342;2022-10-16T05:56:52;99532.04;;;9.59;27.84
63339;BME280;47485;51.378;-1.342;2022-10-16T05:59:18;99538.26;;;8.08;27.84
63339;BME280;47485;51.378;-1.342;2022-10-16T06:01:45;99537.63;;;9.93;27.35
63339;BME280;47485;51.378;-1.342;2022-10-16T06:04:13;99540.31;;;7.41;28.11
63339;BME280;47485;51.378;-1.342;2022-10-16T06:06:40;99542.49;;;9.55;26.17
63339;BME280;47485;51.378;-1.342;2022-10-16T06:09:09;99546.02;;;8.95;26.91
63339;BME280;47485;51.378;-1.342;2022-10-16T06:11:36;99546.93;;;8.93;26.65
63339;BME280;47485;51.378;-1.342;2022-10-16T06:14:03;99543.72;;;9.03;26.17
63339;BME280;47485;51.378;-1.342;2022-10-16T06:16:31;99546.34;;;8.90;25.80
63339;BME280;47485;51.378;-1.342;2022-10-16T06:18:58;99545.72;;;8.15;25.97
63339;BME280;47485;51.378;-1.342;2022-10-16T06:21:25;99547.93;;;9.67;25.70
63339;BME280;47485;51.378;-1.342;2022-10-16T06:23:53;99550.01;;;10.21;25.39
63339;BME280;47485;51.378;-1.342;2022-10-16T06:26:22;99551.04;;;9.45;25.49
63339;BME280;47485;51.378;-1.342;2022-10-16T06:28:50;99552.87;;;10.50;25.50
63339;BME280;47485;51.378;-1.342;2022-10-16T06:31:23;99555.59;;;9.29;26.41
63339;BME280;47485;51.378;-1.342;2022-10-16T06:33:51;99558.41;;;11.04;25.41
63339;BME280;47485;51.378;-1.342;2022-10-16T06:36:18;99560.86;;;9.78;26.37
63339;BME280;47485;51.378;-1.342;2022-10-16T06:38:45;99565.42;;;8.73;26.19
63339;BME280;47485;51.378;-1.342;2022-10-16T06:41:13;99572.35;;;9.45;26.70
63339;BME280;47485;51.378;-1.342;2022-10-16T06:43:40;99572.88;;;10.43;25.81
63339;BME280;47485;51.378;-1.342;2022-10-16T06:46:10;99569.32;;;10.90;25.50
63339;BME280;47485;51.378;-1.342;2022-10-16T06:48:37;99568.36;;;11.96;24.23
63339;BME280;47485;51.378;-1.342;2022-10-16T06:51:08;99574.15;;;11.34;24.15
63339;BME280;47485;51.378;-1.342;2022-10-16T06:53:36;99583.70;;;9.93;25.55
63339;BME280;47485;51.378;-1.342;2022-10-16T06:56:08;99586.30;;;9.86;26.35
63339;BME280;47485;51.378;-1.342;2022-10-16T06:58:35;99585.43;;;10.68;26.32
63339;BME280;47485;51.378;-1.342;2022-10-16T07:01:03;99584.29;;;9.95;26.64
63339;BME280;47485;51.378;-1.342;2022-10-16T07:03:30;99587.95;;;9.84;26.51
63339;BME280;47485;51.378;-1.342;2022-10-16T07:05:57;99595.79;;;11.15;26.21
63339;BME280;47485;51.378;-1.342;2022-10-16T07:08:23;99602.25;;;9.48;26.40
63339;BME280;47485;51.378;-1.342;2022-10-16T07:10:58;99611.54;;;8.40;26.82
63339;BME280;47485;51.378;-1.342;2022-10-16T07:13:25;99617.80;;;9.70;27.01
63339;BME280;47485;51.378;-1.342;2022-10-16T07:15:52;99626.58;;;8.45;27.90
63339;BME280;47485;51.378;-1.342;2022-10-16T07:18:19;99629.34;;;9.23;26.37
63339;BME280;47485;51.378;-1.342;2022-10-16T07:20:45;99634.90;;;8.75;27.38
63339;BME280;47485;51.378;-1.342;2022-10-16T07:23:12;99638.98;;;9.55;27.05
63339;BME280;47485;51.378;-1.342;2022-10-16T07:25:39;99639.77;;;9.84;26.83
63339;BME280;47485;51.378;-1.342;2022-10-16T07:28:06;99640.01;;;10.34;26.39
63339;BME280;47485;51.378;-1.342;2022-10-16T07:30:34;99641.19;;;9.74;27.15
63339;BME280;47485;51.378;-1.342;2022-10-16T07:33:03;99646.75;;;11.15;26.18
63339;BME280;47485;51.378;-1.342;2022-10-16T07:35:30;99652.60;;;12.74;26.00
63339;BME280;47485;51.378;-1.342;2022-10-16T07:37:57;99656.53;;;12.32;27.13
63339;BME280;47485;51.378;-1.342;2022-10-16T07:40:24;99663.07;;;11.44;27.86
63339;BME280;47485;51.378;-1.342;2022-10-16T07:42:51;99667.22;;;10.53;28.79
63339;BME280;47485;51.378;-1.342;2022-10-16T07:45:19;99664.36;;;10.19;28.24
63339;BME280;47485;51.378;-1.342;2022-10-16T07:47:46;99666.65;;;8.74;30.32
63339;BME280;47485;51.378;-1.342;2022-10-16T07:50:13;99668.96;;;10.18;29.71
63339;BME280;47485;51.378;-1.342;2022-10-16T07:52:39;99671.37;;;8.42;30.11
63339;BME280;47485;51.378;-1.342;2022-10-16T07:55:07;99672.58;;;9.56;29.85
63339;BME280;47485;51.378;-1.342;2022-10-16T07:57:34;99676.29;;;9.92;29.77
63339;BME280;47485;51.378;-1.342;2022-10-16T08:00:01;99681.18;;;11.00;28.75
63339;BME280;47485;51.378;-1.342;2022-10-16T08:02:28;99684.09;;;9.40;30.58
63339;BME280;47485;51.378;-1.342;2022-10-16T08:04:55;99695.68;;;8.69;32.09
63339;BME280;47485;51.378;-1.342;2022-10-16T08:07:22;99699.65;;;11.80;29.64
63339;BME280;47485;51.378;-1.342;2022-10-16T08:09:49;99704.67;;;6.50;33.41
63339;BME280;47485;51.378;-1.342;2022-10-16T08:12:16;99706.90;;;5.83;34.05
63339;BME280;47485;51.378;-1.342;2022-10-16T08:14:43;99703.82;;;8.61;32.05
63339;BME280;47485;51.378;-1.342;2022-10-16T08:17:09;99704.64;;;9.59;30.03
63339;BME280;47485;51.378;-1.342;2022-10-16T08:19:36;99704.59;;;12.18;28.15
63339;BME280;47485;51.378;-1.342;2022-10-16T08:22:04;99710.01;;;7.35;30.90
63339;BME280;47485;51.378;-1.342;2022-10-16T08:24:30;99710.33;;;11.68;29.06
63339;BME280;47485;51.378;-1.342;2022-10-16T08:26:57;99714.41;;;12.51;28.36
63339;BME280;47485;51.378;-1.342;2022-10-16T08:29:24;99717.15;;;11.79;28.40
63339;BME280;47485;51.378;-1.342;2022-10-16T08:31:50;99721.31;;;10.97;28.51
63339;BME280;47485;51.378;-1.342;2022-10-16T08:34:17;99721.16;;;13.61;27.37
63339;BME280;47485;51.378;-1.342;2022-10-16T08:36:44;99721.58;;;11.20;28.81
63339;BME280;47485;51.378;-1.342;2022-10-16T08:39:11;99724.58;;;9.56;29.28
63339;BME280;47485;51.378;-1.342;2022-10-16T08:42:02;99726.83;;;13.24;28.65
63339;BME280;47485;51.378;-1.342;2022-10-16T08:44:43;99733.62;;;12.59;29.68
63339;BME280;47485;51.378;-1.342;2022-10-16T08:47:18;99739.20;;;11.32;30.93
63339;BME280;47485;51.378;-1.342;2022-10-16T08:49:56;99742.16;;;11.78;30.48
63339;BME280;47485;51.378;-1.342;2022-10-16T08:52:31;99745.66;;;11.92;31.16
63339;BME280;47485;51.378;-1.342;2022-10-16T08:55:01;99754.10;;;10.24;33.07
63339;BME280;47485;51.378;-1.342;2022-10-16T08:57:29;99757.62;;;9.51;34.48
63339;BME280;47485;51.378;-1.342;2022-10-16T08:59:59;99760.68;;;9.97;33.39
63339;BME280;47485;51.378;-1.342;2022-10-16T09:02:32;99759.52;;;9.97;32.43
63339;BME280;47485;51.378;-1.342;2022-10-16T09:05:24;99760.70;;;9.79;32.48
63339;BME280;47485;51.378;-1.342;2022-10-16T09:08:01;99759.18;;;11.69;30.04
63339;BME280;47485;51.378;-1.342;2022-10-16T09:10:38;99764.26;;;12.96;29.23
63339;BME280;47485;51.378;-1.342;2022-10-16T09:13:17;99770.98;;;8.10;31.61
63339;BME280;47485;51.378;-1.342;2022-10-16T09:15:48;99772.66;;;9.15;30.17
63339;BME280;47485;51.378;-1.342;2022-10-16T09:18:23;99777.88;;;12.23;28.65
63339;BME280;47485;51.378;-1.342;2022-10-16T09:20:55;99774.06;;;11.25;27.82
63339;BME280;47485;51.378;-1.342;2022-10-16T09:23:28;99776.78;;;14.07;28.50
63339;BME280;47485;51.378;-1.342;2022-10-16T09:25:58;99770.82;;;12.09;28.87
63339;BME280;47485;51.378;-1.342;2022-10-16T09:28:26;99770.89;;;11.35;29.67
63339;BME280;47485;51.378;-1.342;2022-10-16T09:30:53;99772.46;;;10.95;29.71
63339;BME280;47485;51.378;-1.342;2022-10-16T09:33:28;99772.56;;;11.76;29.00
63339;BME280;47485;51.378;-1.342;2022-10-16T09:35:57;99774.98;;;13.63;27.19
63339;BME280;47485;51.378;-1.342;2022-10-16T09:38:26;99777.10;;;9.90;29.66
63339;BME280;47485;51.378;-1.342;2022-10-16T09:40:54;99777.28;;;11.65;28.58
63339;BME280;47485;51.378;-1.342;2022-10-16T09:43:24;99781.47;;;11.84;28.20
63339;BME280;47485;51.378;-1.342;2022-10-16T09:45:57;99777.40;;;14.30;26.51
63339;BME280;47485;51.378;-1.342;2022-10-16T09:48:25;99781.91;;;11.58;29.22
63339;BME280;47485;51.378;-1.342;2022-10-16T09:50:58;99778.17;;;14.11;26.64
63339;BME280;47485;51.378;-1.342;2022-10-16T09:53:27;99780.18;;;15.50;26.68
63339;BME280;47485;51.378;-1.342;2022-10-16T09:56:04;99783.08;;;11.94;27.72
63339;BME280;47485;51.378;-1.342;2022-10-16T09:58:31;99781.10;;;14.94;25.95
63339;BME280;47485;51.378;-1.342;2022-10-16T10:00:58;99782.47;;;13.91;26.31
63339;BME280;47485;51.378;-1.342;2022-10-16T10:03:34;99782.88;;;13.23;25.90
63339;BME280;47485;51.378;-1.342;2022-10-16T10:06:15;99782.30;;;15.46;26.25
63339;BME280;47485;51.378;-1.342;2022-10-16T10:08:54;99779.55;;;13.04;27.57
63339;BME280;47485;51.378;-1.342;2022-10-16T10:11:37;99782.26;;;11.71;28.10
63339;BME280;47485;51.378;-1.342;2022-10-16T10:14:05;99781.67;;;11.55;28.95
63339;BME280;47485;51.378;-1.342;2022-10-16T10:16:33;99777.03;;;14.23;26.32
63339;BME280;47485;51.378;-1.342;2022-10-16T10:19:00;99772.80;;;13.24;27.40
63339;BME280;47485;51.378;-1.342;2022-10-16T10:21:27;99772.19;;;12.24;27.44
63339;BME280;47485;51.378;-1.342;2022-10-16T10:23:55;99770.93;;;10.21;28.30
63339;BME280;47485;51.378;-1.342;2022-10-16T10:26:24;99776.05;;;9.57;30.35
63339;BME280;47485;51.378;-1.342;2022-10-16T10:28:59;99775.71;;;11.67;27.58
63339;BME280;47485;51.378;-1.342;2022-10-16T10:31:35;99767.85;;;13.30;25.04
63339;BME280;47485;51.378;-1.342;2022-10-16T10:34:15;99776.71;;;9.99;28.40
63339;BME280;47485;51.378;-1.342;2022-10-16T10:36:49;99776.39;;;12.62;26.10
63339;BME280;47485;51.378;-1.342;2022-10-16T10:39:27;99781.43;;;10.53;26.87
63339;BME280;47485;51.378;-1.342;2022-10-16T10:42:12;99774.68;;;15.65;24.86
63339;BME280;47485;51.378;-1.342;2022-10-16T10:44:52;99781.13;;;12.55;26.22
63339;BME280;47485;51.378;-1.342;2022-10-16T10:47:26;99780.37;;;11.09;27.55
63339;BME280;47485;51.378;-1.342;2022-10-16T10:50:05;99783.80;;;11.74;26.68
63339;BME280;47485;51.378;-1.342;2022-10-16T10:52:47;99777.09;;;14.71;24.39
63339;BME280;47485;51.378;-1.342;2022-10-16T10:55:23;99783.54;;;11.76;26.14
63339;BME280;47485;51.378;-1.342;2022-10-16T10:58:05;99792.53;;;8.84;30.50
63339;BME280;47485;51.378;-1.342;2022-10-16T11:00:42;99792.94;;;12.46;27.66
63339;BME280;47485;51.378;-1.342;2022-10-16T11:03:24;99792.84;;;12.99;26.98
63339;BME280;47485;51.378;-1.342;2022-10-16T11:05:56;99794.21;;;10.92;29.49
63339;BME280;47485;51.378;-1.342;2022-10-16T11:08:31;99787.03;;;9.82;29.88
63339;BME280;47485;51.378;-1.342;2022-10-16T11:11:10;99779.60;;;13.43;26.89
63339;BME280;47485;51.378;-1.342;2022-10-16T11:13:40;99778.94;;;13.11;26.53
63339;BME280;47485;51.378;-1.342;2022-10-16T11:16:15;99776.00;;;13.08;26.17
63339;BME280;47485;51.378;-1.342;2022-10-16T11:18:49;99772.61;;;10.95;25.91
63339;BME280;47485;51.378;-1.342;2022-10-16T11:21:20;99770.62;;;14.27;24.31
63339;BME280;47485;51.378;-1.342;2022-10-16T11:23:53;99771.38;;;11.41;27.93
63339;BME280;47485;51.378;-1.342;2022-10-16T11:26:26;99770.28;;;13.15;26.27
63339;BME280;47485;51.378;-1.342;2022-10-16T11:28:56;99771.76;;;10.76;27.23
63339;BME280;47485;51.378;-1.342;2022-10-16T11:31:29;99770.01;;;13.01;26.21
63339;BME280;47485;51.378;-1.342;2022-10-16T11:34:03;99765.98;;;14.09;24.57
63339;BME280;47485;51.378;-1.342;2022-10-16T11:36:36;99777.20;;;12.49;25.79
63339;BME280;47485;51.378;-1.342;2022-10-16T11:39:16;99779.45;;;11.26;27.18
63339;BME280;47485;51.378;-1.342;2022-10-16T11:41:47;99774.99;;;10.84;28.04
63339;BME280;47485;51.378;-1.342;2022-10-16T11:44:22;99776.76;;;9.02;29.75
63339;BME280;47485;51.378;-1.342;2022-10-16T11:47:00;99777.71;;;9.46;29.34
63339;BME280;47485;51.378;-1.342;2022-10-16T11:49:31;99785.21;;;8.43;29.57
63339;BME280;47485;51.378;-1.342;2022-10-16T11:52:03;99781.95;;;9.03;29.44
63339;BME280;47485;51.378;-1.342;2022-10-16T11:54:38;99783.25;;;13.44;26.41
63339;BME280;47485;51.378;-1.342;2022-10-16T11:57:09;99781.26;;;12.00;27.23
63339;BME280;47485;51.378;-1.342;2022-10-16T11:59:43;99773.59;;;11.83;28.04
63339;BME280;47485;51.378;-1.342;2022-10-16T12:02:32;99773.16;;;11.30;28.52
63339;BME280;47485;51.378;-1.342;2022-10-16T12:05:11;99773.60;;;11.22;29.44
63339;BME280;47485;51.378;-1.342;2022-10-16T12:07:45;99771.79;;;9.39;31.09
63339;BME280;47485;51.378;-1.342;2022-10-16T12:10:20;99777.16;;;13.25;27.62
63339;BME280;47485;51.378;-1.342;2022-10-16T12:12:47;99774.31;;;10.65;28.88
63339;BME280;47485;51.378;-1.342;2022-10-16T12:15:21;99771.36;;;12.55;28.06
63339;BME280;47485;51.378;-1.342;2022-10-16T12:17:50;99772.05;;;12.15;28.78
63339;BME280;47485;51.378;-1.342;2022-10-16T12:20:28;99767.23;;;10.71;28.45
63339;BME280;47485;51.378;-1.342;2022-10-16T12:22:56;99766.26;;;12.95;28.06
63339;BME280;47485;51.378;-1.342;2022-10-16T12:25:27;99763.12;;;11.98;27.55
63339;BME280;47485;51.378;-1.342;2022-10-16T12:27:56;99756.43;;;10.00;29.12
63339;BME280;47485;51.378;-1.342;2022-10-16T12:30:25;99754.17;;;12.89;27.31
63339;BME280;47485;51.378;-1.342;2022-10-16T12:32:54;99743.20;;;10.53;28.08
63339;BME280;47485;51.378;-1.342;2022-10-16T12:35:22;99741.97;;;11.56;27.84
63339;BME280;47485;51.378;-1.342;2022-10-16T12:37:50;99753.00;;;10.71;29.46
63339;BME280;47485;51.378;-1.342;2022-10-16T12:40:26;99754.49;;;10.81;30.47
63339;BME280;47485;51.378;-1.342;2022-10-16T12:42:54;99752.68;;;11.59;30.02
63339;BME280;47485;51.378;-1.342;2022-10-16T12:45:26;99749.34;;;11.01;29.42
63339;BME280;47485;51.378;-1.342;2022-10-16T12:47:54;99752.79;;;7.75;31.33
63339;BME280;47485;51.378;-1.342;2022-10-16T12:50:27;99742.23;;;11.52;29.13
63339;BME280;47485;51.378;-1.342;2022-10-16T12:52:54;99735.79;;;9.10;29.53
63339;BME280;47485;51.378;-1.342;2022-10-16T12:55:22;99738.14;;;9.07;32.45
63339;BME280;47485;51.378;-1.342;2022-10-16T12:58:05;99746.75;;;9.05;31.44
63339;BME280;47485;51.378;-1.342;2022-10-16T13:00:41;99745.29;;;13.16;28.36
63339;BME280;47485;51.378;-1.342;2022-10-16T13:03:25;99741.87;;;12.84;27.07
63339;BME280;47485;51.378;-1.342;2022-10-16T13:06:06;99743.97;;;11.50;27.83
63339;BME280;47485;51.378;-1.342;2022-10-16T13:08:51;99743.98;;;11.86;27.22
63339;BME280;47485;51.378;-1.342;2022-10-16T13:14:24;99735.22;;;15.42;26.10